El-djazair II — 7TBR — position and weather

sailwx.info

Track history (hours):
 
Tides and Currents Weather Stations Pressure Air Temp Water Temp Dewpoint Dewpoint Depression Visibility Wind Speed Wind Dir Waves Ship Positions

El-djazair II

Last reported at 2015-May-02 11:33 UTC. Time now 2015-May-03 11:50 UTC.
Position N 43°13' E 005°19'.

Length 146 m; draft 6.3 m.

Type: Passenger vessel. MMSI: 605026190.

Date/timePositionNaut miles runAvg speedWind from/ knotsBaromVisibWave heightAir tempDewpointWater temp
2015-May-02 11:33N 43°13' E 005°19'5 4.9
2015-May-02 10:33N 43°18' E 005°22'0 0.0
2015-May-02 09:33N 43°18' E 005°22'0 0.0
2015-May-02 08:33N 43°18' E 005°22'0 0.0
2015-May-02 07:32N 43°18' E 005°22'0 0.0
2015-May-02 06:32N 43°18' E 005°22'0 0.0
2015-May-02 05:20N 43°18' E 005°22'0 0.0
2015-May-02 04:32N 43°18' E 005°22'0 0.0
2015-May-02 03:26N 43°18' E 005°22'0 0.0
2015-May-02 02:32N 43°18' E 005°22'0 0.0
2015-May-02 01:32N 43°18' E 005°22'0 0.0
2015-May-02 00:32N 43°18' E 005°22'0 0.0
2015-May-01 23:29N 43°18' E 005°22'0 0.0
2015-May-01 22:32N 43°18' E 005°22'0 0.0
2015-May-01 21:32N 43°18' E 005°22'0 0.0
2015-May-01 20:32N 43°18' E 005°22'0 0.0
2015-May-01 19:32N 43°18' E 005°22'0 0.0
2015-May-01 18:26N 43°18' E 005°22'0 0.0
2015-May-01 17:32N 43°18' E 005°22'0 0.0
2015-May-01 16:32N 43°18' E 005°22'0 0.0
2015-May-01 15:32N 43°18' E 005°22'0 0.0
2015-May-01 14:26N 43°18' E 005°22'0 0.0
2015-May-01 13:32N 43°18' E 005°22'0 0.0
2015-May-01 12:26N 43°18' E 005°22'1 1.2
2015-May-01 11:33N 43°18' E 005°20'4421.8
2015-May-01 09:33N 42°42' E 004°46'3322.7
2015-May-01 08:07N 42°16' E 004°19'8222.9
2015-May-01 04:31N 41°10' E 003°13'2223.1
2015-May-01 03:33N 40°52' E 002°55'2323.0
2015-May-01 02:33N 40°34' E 002°37'2322.6
2015-May-01 01:33N 40°16' E 002°19'2322.9
2015-May-01 00:33N 39°57' E 002°01'3023.2
2015-Apr-30 23:16N 39°34' E 001°38'4323.3
2015-Apr-30 21:25N 38°59' E 001°04'2023.3
2015-Apr-30 20:33N 38°41' E 000°54'2322.8
2015-Apr-30 19:33N 38°20' E 000°44'2322.7
2015-Apr-30 18:34N 37°59' E 000°33'2222.4
2015-Apr-30 17:33N 37°38' E 000°22'2322.9
2015-Apr-30 16:34N 37°17' E 000°10'2323.0
2015-Apr-30 15:33N 36°56' W 000°00'4723.1
2015-Apr-30 13:32N 36°12' W 000°22'2323.4
2015-Apr-30 12:34N 35°51' W 000°33'10 0.6
2015-Apr-29 20:22N 35°43' W 000°39'0 0.0
2015-Apr-29 19:16N 35°43' W 000°39'0 0.0
2015-Apr-29 18:28N 35°43' W 000°39'0 0.0
2015-Apr-29 17:28N 35°43' W 000°39'0 0.0
2015-Apr-29 16:21N 35°43' W 000°39'0 0.0
2015-Apr-29 13:09N 35°43' W 000°39'0 0.0
2015-Apr-29 06:33N 35°43' W 000°39'9 9.2
2015-Apr-29 05:33N 35°51' W 000°36'1414.0
2015-Apr-29 04:33N 36°05' W 000°34'1514.1
2015-Apr-29 03:31N 36°20' W 000°33'1414.2
2015-Apr-29 02:33N 36°34' W 000°32'1514.2
2015-Apr-29 01:31N 36°48' W 000°30'1413.9
2015-Apr-29 00:31N 37°02' W 000°29'1414.4
2015-Apr-28 23:32N 37°16' W 000°27'1414.3
2015-Apr-28 22:34N 37°30' W 000°26'1514.8
2015-Apr-28 21:33N 37°45' W 000°24'1514.8
2015-Apr-28 20:33N 37°60' W 000°22'1413.8
2015-Apr-28 19:32N 38°14' W 000°22'6 0.4
2015-Apr-28 05:27N 38°18' W 000°27'1617.3
2015-Apr-28 04:33N 38°03' W 000°22'2121.0
2015-Apr-28 03:33N 37°42' W 000°25'2121.3
2015-Apr-28 02:33N 37°21' W 000°27'99 2.6
2015-Apr-26 13:05N 35°43' W 000°38'1018.9
2015-Apr-26 12:33N 35°53' W 000°35'6521.8
2015-Apr-26 09:33N 36°48' E 000°08'2922.1
2015-Apr-26 08:15N 37°12' E 000°28'1522.1
2015-Apr-26 07:33N 37°25' E 000°38'5516.3
2015-Apr-26 04:11N 38°10' E 001°17'1522.6
2015-Apr-26 03:33N 38°23' E 001°27'2322.7
2015-Apr-26 02:33N 38°42' E 001°41'2322.7
2015-Apr-26 01:33N 39°03' E 001°53'2222.2
2015-Apr-26 00:33N 39°23' E 002°05'2222.1
2015-Apr-25 23:33N 39°42' E 002°19'2222.2
2015-Apr-25 22:33N 40°01' E 002°35'2322.7
2015-Apr-25 21:33N 40°20' E 002°51'2322.6
2015-Apr-25 20:33N 40°39' E 003°07'2423.2
2015-Apr-25 19:30N 40°59' E 003°24'2222.7
2015-Apr-25 18:33N 41°18' E 003°40'2522.7
2015-Apr-25 17:28N 41°39' E 003°57'2222.6
2015-Apr-25 16:29N 41°58' E 004°12'2222.7
2015-Apr-25 15:31N 42°16' E 004°28'2323.5
2015-Apr-25 14:33N 42°35' E 004°45'2520.4
2015-Apr-25 13:19N 42°57' E 005°03'1312.2
2015-Apr-25 12:16N 43°08' E 005°12'1014.1
2015-Apr-25 11:33N 43°16' E 005°19'3 2.8
2015-Apr-25 10:31N 43°18' E 005°22'0 0.0
2015-Apr-25 09:28N 43°18' E 005°22'0 0.0
2015-Apr-25 08:28N 43°18' E 005°22'0 0.0
2015-Apr-25 07:31N 43°18' E 005°22'0 0.0
2015-Apr-25 06:25N 43°18' E 005°22'0 0.0
2015-Apr-25 05:28N 43°18' E 005°22'0 0.0
2015-Apr-25 04:28N 43°18' E 005°22'0 0.0
2015-Apr-25 03:28N 43°18' E 005°22'0 0.0
2015-Apr-25 02:28N 43°18' E 005°22'0 0.0
2015-Apr-25 01:31N 43°18' E 005°22'0 0.0
2015-Apr-25 00:28N 43°18' E 005°22'0 0.0
2015-Apr-24 23:22N 43°18' E 005°22'0 0.0
2015-Apr-24 22:28N 43°18' E 005°22'0 0.0
2015-Apr-24 21:28N 43°18' E 005°22'0 0.0
2015-Apr-24 20:28N 43°18' E 005°22'0 0.0
2015-Apr-24 19:22N 43°18' E 005°22'0 0.0
2015-Apr-24 18:28N 43°18' E 005°22'0 0.0
2015-Apr-24 17:28N 43°18' E 005°22'0 0.0
2015-Apr-24 16:28N 43°18' E 005°22'0 0.0
2015-Apr-24 15:28N 43°18' E 005°22'0 0.0
2015-Apr-24 14:28N 43°18' E 005°22'0 0.0
2015-Apr-24 13:28N 43°18' E 005°22'0 0.0
2015-Apr-24 12:31N 43°18' E 005°22'0 0.0
2015-Apr-24 11:28N 43°18' E 005°22'0 0.0
2015-Apr-24 10:28N 43°18' E 005°22'1111.3
2015-Apr-24 09:31N 43°08' E 005°20'2622.5
2015-Apr-24 08:22N 42°43' E 005°31'2122.7
2015-Apr-24 07:27N 42°23' E 005°39'2822.4
2015-Apr-24 06:12N 41°56' E 005°50'12 0.4
2015-Apr-22 22:12N 41°44' E 005°54'2322.3
2015-Apr-22 21:09N 42°07' E 005°45'2322.3
2015-Apr-22 20:08N 42°28' E 005°36'1522.4
2015-Apr-22 19:29N 42°42' E 005°29'2122.0
2015-Apr-22 18:33N 43°02' E 005°21'1616.3
2015-Apr-22 17:32N 43°18' E 005°22'0 0.0
2015-Apr-22 16:33N 43°18' E 005°22'0 0.0
2015-Apr-22 15:33N 43°18' E 005°22'0 0.0
2015-Apr-22 14:33N 43°18' E 005°22'1615.0
2015-Apr-22 13:31N 43°06' E 005°08'2122.3
2015-Apr-22 12:33N 42°48' E 004°51'2322.7
2015-Apr-22 11:33N 42°30' E 004°33'  
Track history (hours):
 
Tides and Currents Weather Stations Pressure Air Temp Water Temp Dewpoint Dewpoint Depression Visibility Wind Speed Wind Dir Waves Ship Positions

El-djazair II

Last reported at 2015-May-02 11:33 UTC. Time now 2015-May-03 11:50 UTC.
Position N 43°13' E 005°19'.

Length 146 m; draft 6.3 m.

Type: Passenger vessel. MMSI: 605026190.

Date/timePositionNaut miles runAvg speedWind from/ knotsBaromVisibWave heightAir tempDewpointWater temp
2015-May-02 11:33N 43°13' E 005°19'5 4.9
2015-May-02 10:33N 43°18' E 005°22'0 0.0
2015-May-02 09:33N 43°18' E 005°22'0 0.0
2015-May-02 08:33N 43°18' E 005°22'0 0.0
2015-May-02 07:32N 43°18' E 005°22'0 0.0
2015-May-02 06:32N 43°18' E 005°22'0 0.0
2015-May-02 05:20N 43°18' E 005°22'0 0.0
2015-May-02 04:32N 43°18' E 005°22'0 0.0
2015-May-02 03:26N 43°18' E 005°22'0 0.0
2015-May-02 02:32N 43°18' E 005°22'0 0.0
2015-May-02 01:32N 43°18' E 005°22'0 0.0
2015-May-02 00:32N 43°18' E 005°22'0 0.0
2015-May-01 23:29N 43°18' E 005°22'0 0.0
2015-May-01 22:32N 43°18' E 005°22'0 0.0
2015-May-01 21:32N 43°18' E 005°22'0 0.0
2015-May-01 20:32N 43°18' E 005°22'0 0.0
2015-May-01 19:32N 43°18' E 005°22'0 0.0
2015-May-01 18:26N 43°18' E 005°22'0 0.0
2015-May-01 17:32N 43°18' E 005°22'0 0.0
2015-May-01 16:32N 43°18' E 005°22'0 0.0
2015-May-01 15:32N 43°18' E 005°22'0 0.0
2015-May-01 14:26N 43°18' E 005°22'0 0.0
2015-May-01 13:32N 43°18' E 005°22'0 0.0
2015-May-01 12:26N 43°18' E 005°22'1 1.2
2015-May-01 11:33N 43°18' E 005°20'4421.8
2015-May-01 09:33N 42°42' E 004°46'3322.7
2015-May-01 08:07N 42°16' E 004°19'8222.9
2015-May-01 04:31N 41°10' E 003°13'2223.1
2015-May-01 03:33N 40°52' E 002°55'2323.0
2015-May-01 02:33N 40°34' E 002°37'2322.6
2015-May-01 01:33N 40°16' E 002°19'2322.9
2015-May-01 00:33N 39°57' E 002°01'3023.2
2015-Apr-30 23:16N 39°34' E 001°38'4323.3
2015-Apr-30 21:25N 38°59' E 001°04'2023.3
2015-Apr-30 20:33N 38°41' E 000°54'2322.8
2015-Apr-30 19:33N 38°20' E 000°44'2322.7
2015-Apr-30 18:34N 37°59' E 000°33'2222.4
2015-Apr-30 17:33N 37°38' E 000°22'2322.9
2015-Apr-30 16:34N 37°17' E 000°10'2323.0
2015-Apr-30 15:33N 36°56' W 000°00'4723.1
2015-Apr-30 13:32N 36°12' W 000°22'2323.4
2015-Apr-30 12:34N 35°51' W 000°33'10 0.6
2015-Apr-29 20:22N 35°43' W 000°39'0 0.0
2015-Apr-29 19:16N 35°43' W 000°39'0 0.0
2015-Apr-29 18:28N 35°43' W 000°39'0 0.0
2015-Apr-29 17:28N 35°43' W 000°39'0 0.0
2015-Apr-29 16:21N 35°43' W 000°39'0 0.0
2015-Apr-29 13:09N 35°43' W 000°39'0 0.0
2015-Apr-29 06:33N 35°43' W 000°39'9 9.2
2015-Apr-29 05:33N 35°51' W 000°36'1414.0
2015-Apr-29 04:33N 36°05' W 000°34'1514.1
2015-Apr-29 03:31N 36°20' W 000°33'1414.2
2015-Apr-29 02:33N 36°34' W 000°32'1514.2
2015-Apr-29 01:31N 36°48' W 000°30'1413.9
2015-Apr-29 00:31N 37°02' W 000°29'1414.4
2015-Apr-28 23:32N 37°16' W 000°27'1414.3
2015-Apr-28 22:34N 37°30' W 000°26'1514.8
2015-Apr-28 21:33N 37°45' W 000°24'1514.8
2015-Apr-28 20:33N 37°60' W 000°22'1413.8
2015-Apr-28 19:32N 38°14' W 000°22'6 0.4
2015-Apr-28 05:27N 38°18' W 000°27'1617.3
2015-Apr-28 04:33N 38°03' W 000°22'2121.0
2015-Apr-28 03:33N 37°42' W 000°25'2121.3
2015-Apr-28 02:33N 37°21' W 000°27'99 2.6
2015-Apr-26 13:05N 35°43' W 000°38'1018.9
2015-Apr-26 12:33N 35°53' W 000°35'6521.8
2015-Apr-26 09:33N 36°48' E 000°08'2922.1
2015-Apr-26 08:15N 37°12' E 000°28'1522.1
2015-Apr-26 07:33N 37°25' E 000°38'5516.3
2015-Apr-26 04:11N 38°10' E 001°17'1522.6
2015-Apr-26 03:33N 38°23' E 001°27'2322.7
2015-Apr-26 02:33N 38°42' E 001°41'2322.7
2015-Apr-26 01:33N 39°03' E 001°53'2222.2
2015-Apr-26 00:33N 39°23' E 002°05'2222.1
2015-Apr-25 23:33N 39°42' E 002°19'2222.2
2015-Apr-25 22:33N 40°01' E 002°35'2322.7
2015-Apr-25 21:33N 40°20' E 002°51'2322.6
2015-Apr-25 20:33N 40°39' E 003°07'2423.2
2015-Apr-25 19:30N 40°59' E 003°24'2222.7
2015-Apr-25 18:33N 41°18' E 003°40'2522.7
2015-Apr-25 17:28N 41°39' E 003°57'2222.6
2015-Apr-25 16:29N 41°58' E 004°12'2222.7
2015-Apr-25 15:31N 42°16' E 004°28'2323.5
2015-Apr-25 14:33N 42°35' E 004°45'2520.4
2015-Apr-25 13:19N 42°57' E 005°03'1312.2
2015-Apr-25 12:16N 43°08' E 005°12'1014.1
2015-Apr-25 11:33N 43°16' E 005°19'3 2.8
2015-Apr-25 10:31N 43°18' E 005°22'0 0.0
2015-Apr-25 09:28N 43°18' E 005°22'0 0.0
2015-Apr-25 08:28N 43°18' E 005°22'0 0.0
2015-Apr-25 07:31N 43°18' E 005°22'0 0.0
2015-Apr-25 06:25N 43°18' E 005°22'0 0.0
2015-Apr-25 05:28N 43°18' E 005°22'0 0.0
2015-Apr-25 04:28N 43°18' E 005°22'0 0.0
2015-Apr-25 03:28N 43°18' E 005°22'0 0.0
2015-Apr-25 02:28N 43°18' E 005°22'0 0.0
2015-Apr-25 01:31N 43°18' E 005°22'0 0.0
2015-Apr-25 00:28N 43°18' E 005°22'0 0.0
2015-Apr-24 23:22N 43°18' E 005°22'0 0.0
2015-Apr-24 22:28N 43°18' E 005°22'0 0.0
2015-Apr-24 21:28N 43°18' E 005°22'0 0.0
2015-Apr-24 20:28N 43°18' E 005°22'0 0.0
2015-Apr-24 19:22N 43°18' E 005°22'0 0.0
2015-Apr-24 18:28N 43°18' E 005°22'0 0.0
2015-Apr-24 17:28N 43°18' E 005°22'0 0.0
2015-Apr-24 16:28N 43°18' E 005°22'0 0.0
2015-Apr-24 15:28N 43°18' E 005°22'0 0.0
2015-Apr-24 14:28N 43°18' E 005°22'0 0.0
2015-Apr-24 13:28N 43°18' E 005°22'0 0.0
2015-Apr-24 12:31N 43°18' E 005°22'0 0.0
2015-Apr-24 11:28N 43°18' E 005°22'0 0.0
2015-Apr-24 10:28N 43°18' E 005°22'1111.3
2015-Apr-24 09:31N 43°08' E 005°20'2622.5
2015-Apr-24 08:22N 42°43' E 005°31'2122.7
2015-Apr-24 07:27N 42°23' E 005°39'2822.4
2015-Apr-24 06:12N 41°56' E 005°50'12 0.4
2015-Apr-22 22:12N 41°44' E 005°54'2322.3
2015-Apr-22 21:09N 42°07' E 005°45'2322.3
2015-Apr-22 20:08N 42°28' E 005°36'1522.4
2015-Apr-22 19:29N 42°42' E 005°29'2122.0
2015-Apr-22 18:33N 43°02' E 005°21'1616.3
2015-Apr-22 17:32N 43°18' E 005°22'0 0.0
2015-Apr-22 16:33N 43°18' E 005°22'0 0.0
2015-Apr-22 15:33N 43°18' E 005°22'0 0.0
2015-Apr-22 14:33N 43°18' E 005°22'1615.0
2015-Apr-22 13:31N 43°06' E 005°08'2122.3
2015-Apr-22 12:33N 42°48' E 004°51'2322.7
2015-Apr-22 11:33N 42°30' E 004°33'  

Dump ship's entire track history